sensor_id;sensor_type;location;lat;lon;timestamp;pressure;altitude;pressure_sealevel;temperature;humidity
52469;BME280;38381;53.688;10.776;2023-02-12T00:02:53;103099.16;;;6.85;100.00
52469;BME280;38381;53.688;10.776;2023-02-12T00:07:53;103093.66;;;6.94;100.00
52469;BME280;38381;53.688;10.776;2023-02-12T00:12:53;103106.09;;;6.86;100.00
52469;BME280;38381;53.688;10.776;2023-02-12T00:17:54;103113.03;;;6.87;100.00
52469;BME280;38381;53.688;10.776;2023-02-12T00:22:54;103123.88;;;6.81;100.00
52469;BME280;38381;53.688;10.776;2023-02-12T00:27:55;103110.63;;;6.75;100.00
52469;BME280;38381;53.688;10.776;2023-02-12T00:32:55;103112.09;;;6.72;100.00
52469;BME280;38381;53.688;10.776;2023-02-12T00:37:56;103108.66;;;6.71;100.00
52469;BME280;38381;53.688;10.776;2023-02-12T00:42:56;103123.50;;;6.75;100.00
52469;BME280;38381;53.688;10.776;2023-02-12T00:47:57;103130.25;;;6.73;100.00
52469;BME280;38381;53.688;10.776;2023-02-12T00:52:57;103128.53;;;6.59;100.00
52469;BME280;38381;53.688;10.776;2023-02-12T00:57:57;103134.03;;;6.50;100.00
52469;BME280;38381;53.688;10.776;2023-02-12T01:02:58;103140.34;;;6.55;100.00
52469;BME280;38381;53.688;10.776;2023-02-12T01:07:58;103140.94;;;6.51;100.00
52469;BME280;38381;53.688;10.776;2023-02-12T01:12:59;103143.13;;;6.58;100.00
52469;BME280;38381;53.688;10.776;2023-02-12T01:17:59;103150.84;;;6.58;100.00
52469;BME280;38381;53.688;10.776;2023-02-12T01:23:00;103147.47;;;6.59;100.00
52469;BME280;38381;53.688;10.776;2023-02-12T01:28:00;103156.00;;;6.58;100.00
52469;BME280;38381;53.688;10.776;2023-02-12T01:33:01;103163.53;;;6.55;100.00
52469;BME280;38381;53.688;10.776;2023-02-12T01:38:01;103172.16;;;6.56;100.00
52469;BME280;38381;53.688;10.776;2023-02-12T01:43:02;103177.66;;;6.47;100.00
52469;BME280;38381;53.688;10.776;2023-02-12T01:48:02;103174.66;;;6.54;100.00
52469;BME280;38381;53.688;10.776;2023-02-12T01:53:03;103181.59;;;6.55;100.00
52469;BME280;38381;53.688;10.776;2023-02-12T01:58:04;103175.06;;;6.47;100.00
52469;BME280;38381;53.688;10.776;2023-02-12T02:03:05;103168.69;;;6.55;100.00
52469;BME280;38381;53.688;10.776;2023-02-12T02:08:05;103180.06;;;6.44;100.00
52469;BME280;38381;53.688;10.776;2023-02-12T02:13:06;103169.50;;;6.54;100.00
52469;BME280;38381;53.688;10.776;2023-02-12T02:18:34;103174.38;;;6.50;100.00
52469;BME280;38381;53.688;10.776;2023-02-12T02:40:10;103162.63;;;6.40;100.00
52469;BME280;38381;53.688;10.776;2023-02-12T02:45:18;103172.50;;;6.47;100.00
52469;BME280;38381;53.688;10.776;2023-02-12T02:50:22;103171.50;;;6.45;100.00
52469;BME280;38381;53.688;10.776;2023-02-12T02:55:26;103177.66;;;6.47;100.00
52469;BME280;38381;53.688;10.776;2023-02-12T03:00:37;103179.84;;;6.41;100.00
52469;BME280;38381;53.688;10.776;2023-02-12T03:05:43;103176.66;;;6.45;100.00
52469;BME280;38381;53.688;10.776;2023-02-12T03:10:50;103181.22;;;6.49;100.00
52469;BME280;38381;53.688;10.776;2023-02-12T03:16:11;103192.94;;;6.44;100.00
52469;BME280;38381;53.688;10.776;2023-02-12T03:21:17;103194.31;;;6.39;99.85
52469;BME280;38381;53.688;10.776;2023-02-12T03:26:22;103200.84;;;6.47;100.00
52469;BME280;38381;53.688;10.776;2023-02-12T03:31:58;103206.94;;;6.34;100.00
52469;BME280;38381;53.688;10.776;2023-02-12T03:42:44;103221.28;;;6.31;100.00
52469;BME280;38381;53.688;10.776;2023-02-12T03:48:08;103220.91;;;6.24;100.00
52469;BME280;38381;53.688;10.776;2023-02-12T03:53:09;103222.50;;;6.22;100.00
52469;BME280;38381;53.688;10.776;2023-02-12T03:58:15;103230.13;;;6.21;100.00
52469;BME280;38381;53.688;10.776;2023-02-12T04:03:17;103225.50;;;6.15;100.00
52469;BME280;38381;53.688;10.776;2023-02-12T04:08:18;103227.75;;;6.11;100.00
52469;BME280;38381;53.688;10.776;2023-02-12T04:13:38;103233.63;;;6.21;100.00
52469;BME280;38381;53.688;10.776;2023-02-12T04:18:43;103239.53;;;6.20;100.00
52469;BME280;38381;53.688;10.776;2023-02-12T04:24:10;103237.56;;;6.16;100.00
52469;BME280;38381;53.688;10.776;2023-02-12T04:29:49;103240.94;;;6.15;100.00
52469;BME280;38381;53.688;10.776;2023-02-12T04:35:03;103249.66;;;6.17;100.00
52469;BME280;38381;53.688;10.776;2023-02-12T04:40:08;103250.06;;;6.23;99.88
52469;BME280;38381;53.688;10.776;2023-02-12T04:45:10;103256.19;;;6.12;99.70
52469;BME280;38381;53.688;10.776;2023-02-12T04:50:11;103268.09;;;6.10;100.00
52469;BME280;38381;53.688;10.776;2023-02-12T04:55:12;103267.50;;;6.14;99.72
52469;BME280;38381;53.688;10.776;2023-02-12T05:00:13;103270.38;;;6.06;99.63
52469;BME280;38381;53.688;10.776;2023-02-12T05:05:14;103271.47;;;6.09;99.79
52469;BME280;38381;53.688;10.776;2023-02-12T05:10:15;103274.44;;;6.15;100.00
52469;BME280;38381;53.688;10.776;2023-02-12T05:15:15;103282.25;;;6.03;100.00
52469;BME280;38381;53.688;10.776;2023-02-12T05:20:16;103279.56;;;6.02;99.42
52469;BME280;38381;53.688;10.776;2023-02-12T05:25:16;103273.81;;;5.93;99.86
52469;BME280;38381;53.688;10.776;2023-02-12T05:30:17;103276.44;;;5.94;99.64
52469;BME280;38381;53.688;10.776;2023-02-12T05:35:17;103281.84;;;5.97;99.03
52469;BME280;38381;53.688;10.776;2023-02-12T05:40:18;103279.03;;;5.94;99.67
52469;BME280;38381;53.688;10.776;2023-02-12T05:45:18;103285.19;;;5.96;99.57
52469;BME280;38381;53.688;10.776;2023-02-12T05:50:19;103290.84;;;5.91;99.94
52469;BME280;38381;53.688;10.776;2023-02-12T05:55:19;103296.34;;;5.83;99.22
52469;BME280;38381;53.688;10.776;2023-02-12T06:00:20;103284.94;;;5.80;99.82
52469;BME280;38381;53.688;10.776;2023-02-12T06:05:20;103295.56;;;5.84;99.79
52469;BME280;38381;53.688;10.776;2023-02-12T06:10:21;103304.38;;;5.88;99.88
52469;BME280;38381;53.688;10.776;2023-02-12T06:15:21;103302.50;;;5.85;100.00
52469;BME280;38381;53.688;10.776;2023-02-12T06:20:22;103300.50;;;5.81;100.00
52469;BME280;38381;53.688;10.776;2023-02-12T06:25:22;103298.22;;;5.86;100.00
52469;BME280;38381;53.688;10.776;2023-02-12T06:30:22;103305.97;;;5.86;100.00
52469;BME280;38381;53.688;10.776;2023-02-12T06:35:23;103308.06;;;5.92;100.00
52469;BME280;38381;53.688;10.776;2023-02-12T06:40:23;103307.06;;;5.90;99.95
52469;BME280;38381;53.688;10.776;2023-02-12T06:45:24;103306.47;;;5.94;100.00
52469;BME280;38381;53.688;10.776;2023-02-12T06:50:24;103306.81;;;5.98;100.00
52469;BME280;38381;53.688;10.776;2023-02-12T06:55:25;103320.41;;;6.09;100.00
52469;BME280;38381;53.688;10.776;2023-02-12T07:00:25;103326.16;;;6.05;100.00
52469;BME280;38381;53.688;10.776;2023-02-12T07:05:26;103325.06;;;6.01;100.00
52469;BME280;38381;53.688;10.776;2023-02-12T07:10:26;103331.91;;;6.01;100.00
52469;BME280;38381;53.688;10.776;2023-02-12T07:15:26;103339.53;;;6.13;100.00
52469;BME280;38381;53.688;10.776;2023-02-12T07:20:27;103346.56;;;6.02;100.00
52469;BME280;38381;53.688;10.776;2023-02-12T07:25:27;103339.94;;;6.19;100.00
52469;BME280;38381;53.688;10.776;2023-02-12T07:30:28;103352.72;;;6.17;100.00
52469;BME280;38381;53.688;10.776;2023-02-12T07:35:28;103351.81;;;6.17;100.00
52469;BME280;38381;53.688;10.776;2023-02-12T07:40:28;103355.28;;;6.04;100.00
52469;BME280;38381;53.688;10.776;2023-02-12T07:45:29;103346.66;;;6.17;100.00
52469;BME280;38381;53.688;10.776;2023-02-12T07:50:29;103356.50;;;6.22;100.00
52469;BME280;38381;53.688;10.776;2023-02-12T07:55:30;103364.22;;;6.22;100.00
52469;BME280;38381;53.688;10.776;2023-02-12T08:00:30;103366.44;;;6.30;100.00
52469;BME280;38381;53.688;10.776;2023-02-12T08:05:31;103366.31;;;6.28;100.00
52469;BME280;38381;53.688;10.776;2023-02-12T08:10:31;103365.09;;;6.23;100.00
52469;BME280;38381;53.688;10.776;2023-02-12T08:15:31;103376.94;;;6.33;100.00
52469;BME280;38381;53.688;10.776;2023-02-12T08:20:33;103383.47;;;6.41;100.00
52469;BME280;38381;53.688;10.776;2023-02-12T08:25:33;103375.63;;;6.39;100.00
52469;BME280;38381;53.688;10.776;2023-02-12T08:30:34;103397.88;;;6.51;100.00
52469;BME280;38381;53.688;10.776;2023-02-12T08:35:34;103402.94;;;6.62;100.00
52469;BME280;38381;53.688;10.776;2023-02-12T08:40:34;103391.91;;;6.78;100.00
52469;BME280;38381;53.688;10.776;2023-02-12T08:45:35;103397.97;;;6.79;100.00
52469;BME280;38381;53.688;10.776;2023-02-12T08:50:35;103407.38;;;6.78;100.00
52469;BME280;38381;53.688;10.776;2023-02-12T08:55:35;103399.16;;;6.97;100.00
52469;BME280;38381;53.688;10.776;2023-02-12T09:00:36;103389.22;;;6.90;100.00
52469;BME280;38381;53.688;10.776;2023-02-12T09:05:40;103389.22;;;7.03;100.00
52469;BME280;38381;53.688;10.776;2023-02-12T09:10:42;103409.06;;;7.18;100.00
52469;BME280;38381;53.688;10.776;2023-02-12T09:15:43;103404.22;;;7.37;100.00
52469;BME280;38381;53.688;10.776;2023-02-12T09:20:44;103406.63;;;7.34;100.00
52469;BME280;38381;53.688;10.776;2023-02-12T09:25:45;103419.78;;;7.52;99.69
52469;BME280;38381;53.688;10.776;2023-02-12T09:30:45;103414.69;;;7.67;99.70
52469;BME280;38381;53.688;10.776;2023-02-12T09:35:46;103411.75;;;7.76;98.53
52469;BME280;38381;53.688;10.776;2023-02-12T09:46:15;103411.97;;;7.94;97.99
52469;BME280;38381;53.688;10.776;2023-02-12T09:51:18;103413.25;;;8.15;97.05
52469;BME280;38381;53.688;10.776;2023-02-12T09:56:21;103416.03;;;8.18;96.66
52469;BME280;38381;53.688;10.776;2023-02-12T10:01:23;103416.81;;;8.17;96.21
52469;BME280;38381;53.688;10.776;2023-02-12T10:06:33;103419.16;;;8.42;95.83
52469;BME280;38381;53.688;10.776;2023-02-12T10:11:50;103419.34;;;8.45;94.77
52469;BME280;38381;53.688;10.776;2023-02-12T10:23:07;103424.34;;;8.57;94.31
52469;BME280;38381;53.688;10.776;2023-02-12T10:28:19;103429.88;;;8.63;94.17
52469;BME280;38381;53.688;10.776;2023-02-12T10:33:29;103432.63;;;8.66;93.43
52469;BME280;38381;53.688;10.776;2023-02-12T10:38:34;103427.78;;;8.73;93.59
52469;BME280;38381;53.688;10.776;2023-02-12T10:43:36;103428.44;;;8.69;93.05
52469;BME280;38381;53.688;10.776;2023-02-12T10:48:39;103425.81;;;8.83;93.85
52469;BME280;38381;53.688;10.776;2023-02-12T10:58:51;103420.19;;;8.91;93.47
52469;BME280;38381;53.688;10.776;2023-02-12T11:03:53;103423.50;;;8.88;93.57
52469;BME280;38381;53.688;10.776;2023-02-12T11:08:54;103424.78;;;8.80;93.71
52469;BME280;38381;53.688;10.776;2023-02-12T11:14:24;103434.56;;;8.85;94.50
52469;BME280;38381;53.688;10.776;2023-02-12T11:19:28;103424.94;;;8.68;95.00
52469;BME280;38381;53.688;10.776;2023-02-12T11:24:34;103417.00;;;8.65;96.05
52469;BME280;38381;53.688;10.776;2023-02-12T11:29:35;103425.84;;;8.69;96.66
52469;BME280;38381;53.688;10.776;2023-02-12T11:34:35;103418.06;;;8.69;97.30
52469;BME280;38381;53.688;10.776;2023-02-12T11:39:39;103420.91;;;8.88;96.45
52469;BME280;38381;53.688;10.776;2023-02-12T11:44:54;103403.34;;;8.82;95.91
52469;BME280;38381;53.688;10.776;2023-02-12T11:50:25;103409.59;;;8.71;96.49
52469;BME280;38381;53.688;10.776;2023-02-12T11:55:35;103400.06;;;8.70;96.79
52469;BME280;38381;53.688;10.776;2023-02-12T12:06:04;103402.63;;;8.85;97.54
52469;BME280;38381;53.688;10.776;2023-02-12T12:16:53;103401.03;;;8.72;97.50
52469;BME280;38381;53.688;10.776;2023-02-12T12:33:03;103381.31;;;8.74;98.28
52469;BME280;38381;53.688;10.776;2023-02-12T12:54:02;103363.31;;;8.76;97.43
52469;BME280;38381;53.688;10.776;2023-02-12T13:10:15;103357.66;;;8.83;97.91
52469;BME280;38381;53.688;10.776;2023-02-12T13:31:32;103350.38;;;8.76;98.16
52469;BME280;38381;53.688;10.776;2023-02-12T13:36:36;103345.97;;;8.75;97.65
52469;BME280;38381;53.688;10.776;2023-02-12T13:41:38;103349.94;;;8.68;98.84
52469;BME280;38381;53.688;10.776;2023-02-12T13:46:58;103342.06;;;8.66;98.68
52469;BME280;38381;53.688;10.776;2023-02-12T13:52:16;103345.47;;;8.65;98.95
52469;BME280;38381;53.688;10.776;2023-02-12T13:57:19;103347.59;;;8.73;98.46
52469;BME280;38381;53.688;10.776;2023-02-12T14:07:42;103339.41;;;8.65;98.30
52469;BME280;38381;53.688;10.776;2023-02-12T14:12:43;103334.16;;;8.63;98.88
52469;BME280;38381;53.688;10.776;2023-02-12T14:18:03;103330.25;;;8.55;99.01
52469;BME280;38381;53.688;10.776;2023-02-12T14:23:26;103331.03;;;8.54;99.41
52469;BME280;38381;53.688;10.776;2023-02-12T14:28:33;103329.28;;;8.53;98.60
52469;BME280;38381;53.688;10.776;2023-02-12T14:33:40;103329.63;;;8.59;98.78
52469;BME280;38381;53.688;10.776;2023-02-12T14:43:41;103321.75;;;8.58;98.20
52469;BME280;38381;53.688;10.776;2023-02-12T14:49:02;103322.84;;;8.46;98.05
52469;BME280;38381;53.688;10.776;2023-02-12T14:54:13;103325.72;;;8.51;98.14
52469;BME280;38381;53.688;10.776;2023-02-12T14:59:19;103327.88;;;8.43;98.01
52469;BME280;38381;53.688;10.776;2023-02-12T15:04:27;103328.59;;;8.41;97.72
52469;BME280;38381;53.688;10.776;2023-02-12T15:09:32;103319.47;;;8.33;98.42
52469;BME280;38381;53.688;10.776;2023-02-12T15:14:39;103326.16;;;8.29;98.84
52469;BME280;38381;53.688;10.776;2023-02-12T15:20:00;103339.97;;;8.30;98.84
52469;BME280;38381;53.688;10.776;2023-02-12T15:30:27;103337.56;;;8.33;98.68
52469;BME280;38381;53.688;10.776;2023-02-12T15:35:30;103337.28;;;8.28;98.50
52469;BME280;38381;53.688;10.776;2023-02-12T15:40:33;103335.25;;;8.22;99.15
52469;BME280;38381;53.688;10.776;2023-02-12T15:45:35;103335.69;;;8.15;99.53
52469;BME280;38381;53.688;10.776;2023-02-12T15:50:46;103338.72;;;8.23;98.88
52469;BME280;38381;53.688;10.776;2023-02-12T15:55:48;103342.72;;;8.18;99.57
52469;BME280;38381;53.688;10.776;2023-02-12T16:00:50;103347.63;;;8.13;99.19
52469;BME280;38381;53.688;10.776;2023-02-12T16:05:55;103353.06;;;8.03;99.12
52469;BME280;38381;53.688;10.776;2023-02-12T16:10:57;103359.41;;;8.08;98.64
52469;BME280;38381;53.688;10.776;2023-02-12T16:16:27;103359.75;;;7.99;98.86
52469;BME280;38381;53.688;10.776;2023-02-12T16:21:27;103369.91;;;7.96;97.83
52469;BME280;38381;53.688;10.776;2023-02-12T16:26:27;103380.25;;;7.96;98.17
52469;BME280;38381;53.688;10.776;2023-02-12T16:31:28;103377.41;;;7.92;98.04
52469;BME280;38381;53.688;10.776;2023-02-12T16:36:30;103386.31;;;7.97;97.83
52469;BME280;38381;53.688;10.776;2023-02-12T16:41:32;103390.94;;;7.88;97.09
52469;BME280;38381;53.688;10.776;2023-02-12T16:46:44;103397.34;;;7.79;97.03
52469;BME280;38381;53.688;10.776;2023-02-12T16:51:45;103397.13;;;7.76;97.17
52469;BME280;38381;53.688;10.776;2023-02-12T16:56:46;103389.28;;;7.75;97.36
52469;BME280;38381;53.688;10.776;2023-02-12T17:02:00;103395.53;;;7.78;97.12
52469;BME280;38381;53.688;10.776;2023-02-12T17:07:01;103389.09;;;7.57;97.26
52469;BME280;38381;53.688;10.776;2023-02-12T17:12:01;103395.84;;;7.55;96.73
52469;BME280;38381;53.688;10.776;2023-02-12T17:17:02;103401.38;;;7.61;95.65
52469;BME280;38381;53.688;10.776;2023-02-12T17:22:03;103403.59;;;7.55;95.92
52469;BME280;38381;53.688;10.776;2023-02-12T17:27:05;103413.34;;;7.45;95.54
52469;BME280;38381;53.688;10.776;2023-02-12T17:32:07;103417.53;;;7.43;96.18
52469;BME280;38381;53.688;10.776;2023-02-12T17:37:09;103416.34;;;7.38;95.94
52469;BME280;38381;53.688;10.776;2023-02-12T17:42:09;103416.25;;;7.37;95.78
52469;BME280;38381;53.688;10.776;2023-02-12T17:47:11;103416.63;;;7.43;95.12
52469;BME280;38381;53.688;10.776;2023-02-12T17:52:11;103419.75;;;7.24;95.84
52469;BME280;38381;53.688;10.776;2023-02-12T17:57:12;103425.31;;;7.30;95.77
52469;BME280;38381;53.688;10.776;2023-02-12T18:02:14;103416.47;;;7.27;95.79
52469;BME280;38381;53.688;10.776;2023-02-12T18:07:14;103423.34;;;7.26;95.37
52469;BME280;38381;53.688;10.776;2023-02-12T18:12:14;103421.53;;;7.25;95.48
52469;BME280;38381;53.688;10.776;2023-02-12T18:17:15;103430.47;;;7.17;96.48
52469;BME280;38381;53.688;10.776;2023-02-12T18:22:16;103430.69;;;7.07;96.40
52469;BME280;38381;53.688;10.776;2023-02-12T18:27:16;103427.91;;;7.17;95.74
52469;BME280;38381;53.688;10.776;2023-02-12T18:32:20;103427.72;;;7.00;96.32
52469;BME280;38381;53.688;10.776;2023-02-12T18:37:20;103432.28;;;7.04;96.48
52469;BME280;38381;53.688;10.776;2023-02-12T18:42:21;103434.97;;;7.06;96.14
52469;BME280;38381;53.688;10.776;2023-02-12T18:47:21;103444.22;;;6.89;96.99
52469;BME280;38381;53.688;10.776;2023-02-12T18:52:22;103445.09;;;6.90;96.92
52469;BME280;38381;53.688;10.776;2023-02-12T18:57:22;103438.47;;;6.93;96.59
52469;BME280;38381;53.688;10.776;2023-02-12T19:02:23;103436.75;;;6.94;96.88
52469;BME280;38381;53.688;10.776;2023-02-12T19:07:23;103447.56;;;6.88;96.33
52469;BME280;38381;53.688;10.776;2023-02-12T19:12:26;103437.25;;;6.88;96.67
52469;BME280;38381;53.688;10.776;2023-02-12T19:17:26;103442.31;;;6.87;96.81
52469;BME280;38381;53.688;10.776;2023-02-12T19:22:27;103444.59;;;6.82;97.38
52469;BME280;38381;53.688;10.776;2023-02-12T19:27:28;103451.56;;;6.83;97.09
52469;BME280;38381;53.688;10.776;2023-02-12T19:32:29;103453.31;;;6.84;97.69
52469;BME280;38381;53.688;10.776;2023-02-12T19:37:30;103445.59;;;6.71;97.83
52469;BME280;38381;53.688;10.776;2023-02-12T19:42:31;103453.53;;;6.74;97.99
52469;BME280;38381;53.688;10.776;2023-02-12T19:47:32;103453.63;;;6.75;97.37
52469;BME280;38381;53.688;10.776;2023-02-12T19:52:33;103448.56;;;6.90;96.28
52469;BME280;38381;53.688;10.776;2023-02-12T19:57:33;103454.81;;;6.80;96.96
52469;BME280;38381;53.688;10.776;2023-02-12T20:02:37;103456.13;;;6.87;97.06
52469;BME280;38381;53.688;10.776;2023-02-12T20:07:37;103455.13;;;6.85;96.62
52469;BME280;38381;53.688;10.776;2023-02-12T20:12:37;103454.00;;;6.68;97.31
52469;BME280;38381;53.688;10.776;2023-02-12T20:17:40;103459.09;;;6.67;98.11
52469;BME280;38381;53.688;10.776;2023-02-12T20:22:40;103455.41;;;6.76;98.03
52469;BME280;38381;53.688;10.776;2023-02-12T20:27:41;103456.50;;;6.80;97.37
52469;BME280;38381;53.688;10.776;2023-02-12T20:32:41;103454.81;;;6.80;97.49
52469;BME280;38381;53.688;10.776;2023-02-12T20:37:44;103452.81;;;6.76;97.70
52469;BME280;38381;53.688;10.776;2023-02-12T20:42:45;103448.88;;;6.81;97.60
52469;BME280;38381;53.688;10.776;2023-02-12T20:47:45;103452.75;;;6.75;97.93
52469;BME280;38381;53.688;10.776;2023-02-12T20:52:45;103445.88;;;6.75;98.40
52469;BME280;38381;53.688;10.776;2023-02-12T20:57:46;103449.16;;;6.73;97.88
52469;BME280;38381;53.688;10.776;2023-02-12T21:02:48;103442.81;;;6.68;98.08
52469;BME280;38381;53.688;10.776;2023-02-12T21:07:49;103448.78;;;6.67;98.66
52469;BME280;38381;53.688;10.776;2023-02-12T21:12:50;103444.88;;;6.60;98.64
52469;BME280;38381;53.688;10.776;2023-02-12T21:17:50;103439.53;;;6.70;98.37
52469;BME280;38381;53.688;10.776;2023-02-12T21:22:51;103449.94;;;6.72;97.79
52469;BME280;38381;53.688;10.776;2023-02-12T21:27:52;103444.59;;;6.69;98.37
52469;BME280;38381;53.688;10.776;2023-02-12T21:32:52;103438.84;;;6.73;97.99
52469;BME280;38381;53.688;10.776;2023-02-12T21:37:53;103441.50;;;6.74;97.56
52469;BME280;38381;53.688;10.776;2023-02-12T21:42:53;103441.50;;;6.74;97.81
52469;BME280;38381;53.688;10.776;2023-02-12T21:47:54;103447.47;;;6.73;97.71
52469;BME280;38381;53.688;10.776;2023-02-12T21:52:54;103451.63;;;6.71;98.22
52469;BME280;38381;53.688;10.776;2023-02-12T21:57:55;103449.75;;;6.69;97.81
52469;BME280;38381;53.688;10.776;2023-02-12T22:02:56;103452.00;;;6.64;97.96
52469;BME280;38381;53.688;10.776;2023-02-12T22:07:56;103447.38;;;6.72;97.76
52469;BME280;38381;53.688;10.776;2023-02-12T22:12:56;103449.25;;;6.74;97.42
52469;BME280;38381;53.688;10.776;2023-02-12T22:17:57;103443.78;;;6.70;97.77
52469;BME280;38381;53.688;10.776;2023-02-12T22:22:57;103441.31;;;6.71;97.46
52469;BME280;38381;53.688;10.776;2023-02-12T22:27:58;103440.44;;;6.71;97.36
52469;BME280;38381;53.688;10.776;2023-02-12T22:32:59;103443.03;;;6.71;97.83
52469;BME280;38381;53.688;10.776;2023-02-12T22:38:01;103447.66;;;6.63;97.98
52469;BME280;38381;53.688;10.776;2023-02-12T22:43:01;103443.38;;;6.63;97.30
52469;BME280;38381;53.688;10.776;2023-02-12T22:48:02;103445.28;;;6.66;96.95
52469;BME280;38381;53.688;10.776;2023-02-12T22:53:02;103449.72;;;6.55;97.93
52469;BME280;38381;53.688;10.776;2023-02-12T22:58:03;103450.94;;;6.60;97.73
52469;BME280;38381;53.688;10.776;2023-02-12T23:03:04;103454.88;;;6.55;97.88
52469;BME280;38381;53.688;10.776;2023-02-12T23:08:05;103455.09;;;6.58;97.80
52469;BME280;38381;53.688;10.776;2023-02-12T23:13:05;103452.53;;;6.58;97.76
52469;BME280;38381;53.688;10.776;2023-02-12T23:18:05;103448.84;;;6.55;97.42
52469;BME280;38381;53.688;10.776;2023-02-12T23:23:06;103437.72;;;6.56;97.19
52469;BME280;38381;53.688;10.776;2023-02-12T23:28:07;103439.41;;;6.55;97.45
52469;BME280;38381;53.688;10.776;2023-02-12T23:33:07;103448.84;;;6.55;97.14
52469;BME280;38381;53.688;10.776;2023-02-12T23:38:07;103449.31;;;6.49;97.54
52469;BME280;38381;53.688;10.776;2023-02-12T23:43:08;103447.56;;;6.48;97.07
52469;BME280;38381;53.688;10.776;2023-02-12T23:48:09;103447.75;;;6.51;96.63
52469;BME280;38381;53.688;10.776;2023-02-12T23:53:10;103444.97;;;6.48;97.28
52469;BME280;38381;53.688;10.776;2023-02-12T23:58:10;103430.56;;;6.52;96.91
